Time;durP1;ratioP1;P1;durP2;ratioP2;P2;SDS_P1;SDS_P2;PMS_P1;PMS_P2;Temp;Humidity;BMP_temperature;BMP_pressure;BME280_temperature;BME280_humidity;BME280_pressure;Samples;Min_cycle;Max_cycle;Signal;HPM_P1;HPM_P2
2024/04/07 00:00:23;;;;;;;25.30;17.10;;;;;;;16.90;63.59;100192.80;108118;1253;61254;-68
2024/04/07 00:02:50;;;;;;;18.90;13.30;;;;;;;16.93;63.34;100197.92;108038;1257;73629;-69
2024/04/07 00:05:19;;;;;;;24.40;15.30;;;;;;;16.88;63.49;100198.39;108039;1253;69222;-68
2024/04/07 00:07:46;;;;;;;23.60;14.60;;;;;;;16.79;63.57;100204.62;107982;1253;72569;-69
2024/04/07 00:10:13;;;;;;;20.70;13.90;;;;;;;16.69;63.84;100206.47;107934;1254;61214;-68
2024/04/07 00:12:41;;;;;;;23.80;15.20;;;;;;;16.67;64.06;100204.80;108042;1253;59967;-69
2024/04/07 00:15:08;;;;;;;23.00;15.10;;;;;;;16.73;63.84;100211.21;107999;1253;74647;-69
2024/04/07 00:17:36;;;;;;;19.20;13.90;;;;;;;16.71;63.94;100215.39;108023;1253;69679;-69
2024/04/07 00:20:04;;;;;;;20.20;13.90;;;;;;;16.72;64.08;100217.09;107935;1253;71951;-68
2024/04/07 00:22:31;;;;;;;23.30;14.40;;;;;;;16.73;63.88;100218.60;108092;1253;61736;-70
2024/04/07 00:24:58;;;;;;;24.50;13.30;;;;;;;16.72;63.92;100225.10;108054;1253;61171;-68
2024/04/07 00:27:26;;;;;;;18.70;11.80;;;;;;;16.75;63.69;100231.13;108021;1258;74680;-70
2024/04/07 00:29:53;;;;;;;18.60;12.70;;;;;;;16.78;63.39;100234.98;108012;1253;69410;-69
2024/04/07 00:32:21;;;;;;;14.80;11.20;;;;;;;16.69;63.58;100236.30;107960;1253;71401;-69
2024/04/07 00:34:49;;;;;;;18.00;12.20;;;;;;;16.63;63.63;100238.02;108041;1253;61099;-69
2024/04/07 00:37:16;;;;;;;16.60;12.00;;;;;;;16.81;63.01;100242.44;108259;1252;61084;-69
2024/04/07 00:39:44;;;;;;;17.50;12.20;;;;;;;16.88;62.58;100247.88;108094;1253;72420;-68
2024/04/07 00:42:11;;;;;;;16.50;11.70;;;;;;;16.78;62.67;100255.35;108222;1256;70393;-69
2024/04/07 00:44:39;;;;;;;17.70;11.50;;;;;;;16.79;62.59;100257.14;108221;1253;72655;-69
2024/04/07 00:47:07;;;;;;;19.80;12.10;;;;;;;16.86;62.32;100259.02;108179;1252;62140;-68
2024/04/07 00:49:34;;;;;;;17.00;12.90;;;;;;;16.86;62.34;100258.46;108140;1253;61158;-67
2024/04/07 00:52:01;;;;;;;13.00;10.20;;;;;;;16.87;62.40;100261.42;108126;1253;74665;-67
2024/04/07 00:54:29;;;;;;;15.10;11.00;;;;;;;16.87;62.45;100266.55;108066;1253;70316;-68
2024/04/07 00:56:56;;;;;;;17.80;11.80;;;;;;;16.79;62.84;100262.59;108028;1253;71331;-69
2024/04/07 00:59:23;;;;;;;15.60;10.80;;;;;;;16.83;62.88;100265.92;107993;1253;61867;-68
2024/04/07 01:01:51;;;;;;;19.80;13.80;;;;;;;16.94;62.66;100271.10;108142;1253;61124;-69
2024/04/07 01:04:18;;;;;;;19.50;12.40;;;;;;;17.05;62.45;100281.12;108162;1253;74604;-69
2024/04/07 01:06:45;;;;;;;20.40;13.50;;;;;;;17.07;62.33;100285.20;108150;1253;70668;-69
2024/04/07 01:09:12;;;;;;;17.20;12.70;;;;;;;17.07;62.33;100285.90;108165;1252;72066;-68
2024/04/07 01:11:40;;;;;;;19.90;13.70;;;;;;;17.15;62.20;100286.13;108160;1253;61279;-68
2024/04/07 01:14:07;;;;;;;20.70;13.00;;;;;;;17.13;62.34;100289.29;108105;1253;61183;-68
2024/04/07 01:16:35;;;;;;;18.00;12.90;;;;;;;17.09;62.49;100286.34;108145;1253;74604;-68
2024/04/07 01:19:02;;;;;;;20.50;13.20;;;;;;;17.14;62.32;100290.30;108169;1253;69668;-67
2024/04/07 01:21:29;;;;;;;22.80;12.20;;;;;;;17.18;62.38;100294.83;108139;1253;71414;-68
2024/04/07 01:23:57;;;;;;;18.90;13.80;;;;;;;17.28;62.09;100288.88;108115;1253;61776;-69
2024/04/07 01:26:24;;;;;;;20.90;13.00;;;;;;;17.38;61.82;100289.85;108194;1253;59823;-68
2024/04/07 01:28:51;;;;;;;20.60;13.90;;;;;;;17.40;61.74;100290.77;108154;1253;74635;-66
2024/04/07 01:31:18;;;;;;;17.80;13.80;;;;;;;17.47;61.50;100289.99;108151;1256;69034;-69
2024/04/07 01:33:46;;;;;;;21.50;13.20;;;;;;;17.52;61.33;100294.63;108099;1257;71135;-68
2024/04/07 01:36:13;;;;;;;14.40;11.30;;;;;;;17.52;61.37;100302.27;108120;1252;61940;-69
2024/04/07 01:38:40;;;;;;;19.80;13.40;;;;;;;17.55;61.20;100296.92;108085;1252;61193;-68
2024/04/07 01:41:08;;;;;;;17.60;13.30;;;;;;;17.55;61.23;100296.21;108082;1253;73326;-69
2024/04/07 01:43:35;;;;;;;20.70;12.50;;;;;;;17.48;61.40;100302.91;108055;1254;68901;-69
2024/04/07 01:46:04;;;;;;;17.60;12.60;;;;;;;17.52;61.36;100302.81;108134;1253;71437;-68
2024/04/07 01:48:31;;;;;;;19.80;12.90;;;;;;;17.58;61.11;100306.48;108114;1253;61168;-69
2024/04/07 01:50:58;;;;;;;23.60;10.80;;;;;;;17.60;61.01;100305.67;108122;1252;61148;-69
2024/04/07 01:53:26;;;;;;;19.10;13.20;;;;;;;17.55;61.17;100307.04;108084;1253;73990;-69
2024/04/07 01:55:53;;;;;;;20.50;13.90;;;;;;;17.42;61.55;100307.89;108146;1253;68083;-70
2024/04/07 01:58:21;;;;;;;21.00;13.90;;;;;;;17.45;61.51;100307.17;108128;1253;71443;-68
2024/04/07 02:00:48;;;;;;;20.00;14.20;;;;;;;17.51;61.33;100304.86;108126;1253;61736;-70
2024/04/07 02:03:16;;;;;;;16.10;12.00;;;;;;;17.40;61.52;100311.58;108137;1253;61230;-69
2024/04/07 02:05:44;;;;;;;22.10;14.30;;;;;;;17.35;61.62;100314.52;108126;1252;75441;-69
2024/04/07 02:08:11;;;;;;;21.90;15.00;;;;;;;17.35;61.66;100315.40;108113;1253;70423;-69
2024/04/07 02:10:47;;;;;;;24.20;15.20;;;;;;;17.44;61.44;100313.48;108058;1253;70264;-70
2024/04/07 02:13:15;;;;;;;22.90;15.50;;;;;;;17.46;61.40;100311.71;108004;1253;61103;-67
2024/04/07 02:15:43;;;;;;;24.80;14.50;;;;;;;17.47;61.35;100314.34;107965;1252;61076;-68
2024/04/07 02:18:10;;;;;;;23.30;15.80;;;;;;;17.44;61.35;100314.85;108130;1253;72374;-68
2024/04/07 02:20:38;;;;;;;20.00;14.50;;;;;;;17.31;61.59;100317.23;108099;1253;67709;-70
2024/04/07 02:23:05;;;;;;;20.40;13.20;;;;;;;17.14;62.09;100316.36;108115;1253;72487;-68
2024/04/07 02:25:32;;;;;;;25.90;15.40;;;;;;;17.12;62.16;100317.17;108122;1253;61643;-67
2024/04/07 02:28:00;;;;;;;17.50;11.50;;;;;;;17.14;62.21;100320.63;108122;1253;61337;-69
2024/04/07 02:30:27;;;;;;;22.80;14.40;;;;;;;17.18;62.03;100322.30;108122;1257;73333;-69
2024/04/07 02:32:54;;;;;;;22.80;15.20;;;;;;;17.20;61.88;100328.38;108155;1253;69934;-67
2024/04/07 02:35:22;;;;;;;24.20;15.40;;;;;;;17.20;61.74;100335.01;108162;1253;72879;-68
2024/04/07 02:37:49;;;;;;;27.80;16.10;;;;;;;17.11;61.87;100333.21;108183;1253;61657;-69
2024/04/07 02:40:16;;;;;;;26.50;15.60;;;;;;;17.15;61.87;100335.67;107968;1253;61191;-69
2024/04/07 02:42:44;;;;;;;24.70;15.20;;;;;;;17.19;61.63;100336.28;108039;1253;74645;-67
2024/04/07 02:48:09;;;;;;;23.60;15.10;;;;;;;17.31;61.28;100344.61;108169;1253;72675;-69
2024/04/07 02:50:36;;;;;;;31.80;17.80;;;;;;;17.33;61.14;100344.84;108152;1253;61123;-66
2024/04/07 02:53:04;;;;;;;29.00;17.90;;;;;;;17.28;61.29;100340.49;108156;1253;61309;-69
2024/04/07 02:58:00;;;;;;;30.80;19.00;;;;;;;16.25;65.61;100335.84;104677;1292;601352;-68
2024/04/07 03:00:26;;;;;;;27.90;17.10;;;;;;;16.66;63.05;100340.48;107252;1266;59604;-68
2024/04/07 03:02:53;;;;;;;26.40;16.40;;;;;;;16.20;64.32;100336.58;107255;1266;59600;-68
2024/04/07 03:05:19;;;;;;;25.80;16.30;;;;;;;16.49;63.70;100338.98;107237;1267;59523;-68
2024/04/07 03:07:49;;;;;;;20.40;13.70;;;;;;;16.43;63.61;100335.81;107237;1266;59648;-68
2024/04/07 03:10:16;;;;;;;30.30;16.70;;;;;;;16.69;63.00;100339.40;107925;1257;132797;-67
2024/04/07 03:12:43;;;;;;;26.00;17.00;;;;;;;17.10;61.67;100344.14;108230;1253;61639;-66
2024/04/07 03:15:10;;;;;;;23.80;14.70;;;;;;;16.26;63.74;100344.39;108250;1252;59593;-69
2024/04/07 03:17:36;;;;;;;28.00;16.50;;;;;;;16.34;63.98;100349.09;108221;1252;72928;-68
2024/04/07 03:20:04;;;;;;;24.50;15.00;;;;;;;16.67;62.85;100355.67;108220;1252;59807;-66
2024/04/07 03:22:30;;;;;;;23.80;14.80;;;;;;;16.89;62.12;100352.98;108266;1253;70283;-67
2024/04/07 03:24:57;;;;;;;24.90;15.00;;;;;;;16.67;62.60;100355.30;108294;1253;61687;-69
2024/04/07 03:27:23;;;;;;;25.70;15.40;;;;;;;17.01;61.68;100356.34;108222;1253;60135;-67
2024/04/07 03:29:51;;;;;;;26.20;14.90;;;;;;;16.71;62.27;100365.38;108062;1253;74312;-68
2024/04/07 03:32:17;;;;;;;25.50;14.40;;;;;;;16.32;63.31;100369.39;108045;1253;70391;-69
2024/04/07 03:34:44;;;;;;;24.80;15.60;;;;;;;16.42;63.11;100365.61;108036;1253;72209;-67
2024/04/07 03:37:10;;;;;;;25.70;15.00;;;;;;;16.59;62.55;100369.95;108022;1254;60211;-68
2024/04/07 03:39:37;;;;;;;28.30;16.90;;;;;;;16.36;63.21;100380.16;108054;1253;60333;-68
2024/04/07 03:42:05;;;;;;;36.70;18.70;;;;;;;16.14;63.85;100386.70;108093;1254;73667;-68
2024/04/07 03:44:34;;;;;;;29.60;17.80;;;;;;;16.41;63.27;100391.73;108077;1254;70261;-68
2024/04/07 03:47:00;;;;;;;25.30;15.80;;;;;;;16.42;63.26;100401.42;108021;1253;72523;-70
2024/04/07 03:49:27;;;;;;;28.20;18.00;;;;;;;16.34;63.32;100411.95;108059;1254;62025;-68
2024/04/07 03:51:54;;;;;;;23.10;15.90;;;;;;;16.42;63.12;100411.36;108067;1254;60372;-69
2024/04/07 03:54:20;;;;;;;24.40;15.70;;;;;;;16.45;62.96;100424.66;108034;1254;74239;-65
2024/04/07 03:56:47;;;;;;;23.00;15.40;;;;;;;16.46;62.77;100430.96;108062;1254;60448;-68
2024/04/07 03:59:14;;;;;;;24.40;15.20;;;;;;;16.42;62.87;100435.82;108051;1254;72682;-68
2024/04/07 04:01:41;;;;;;;22.30;14.60;;;;;;;16.29;63.19;100439.00;108067;1254;60714;-68
2024/04/07 04:04:08;;;;;;;21.20;14.80;;;;;;;16.22;63.47;100435.01;108002;1254;60426;-66
2024/04/07 04:06:36;;;;;;;20.40;14.50;;;;;;;16.25;63.32;100435.55;108061;1254;73682;-68
2024/04/07 04:09:05;;;;;;;21.80;15.20;;;;;;;16.23;63.39;100436.01;108008;1254;60664;-65
2024/04/07 04:11:32;;;;;;;17.80;13.60;;;;;;;16.40;62.88;100439.26;108032;1254;72507;-66
2024/04/07 04:13:59;;;;;;;19.60;14.40;;;;;;;16.44;62.63;100444.89;108001;1254;60574;-68
2024/04/07 04:16:26;;;;;;;19.40;14.90;;;;;;;16.29;62.75;100453.70;108010;1254;60447;-68
2024/04/07 04:18:53;;;;;;;16.80;12.70;;;;;;;16.25;62.88;100465.27;108058;1254;74576;-66
2024/04/07 04:21:19;;;;;;;22.30;15.00;;;;;;;16.46;62.33;100458.77;108013;1254;70964;-69
2024/04/07 04:23:49;;;;;;;16.90;12.50;;;;;;;16.47;62.00;100462.63;108042;1254;70554;-68
2024/04/07 04:26:15;;;;;;;16.30;13.00;;;;;;;16.42;62.09;100467.14;108015;1257;60567;-69
2024/04/07 04:28:42;;;;;;;16.70;12.70;;;;;;;16.38;62.31;100467.56;108012;1254;60220;-72
2024/04/07 04:31:12;;;;;;;21.90;12.80;;;;;;;16.47;61.96;100472.36;108086;1257;72027;-70
2024/04/07 04:33:38;;;;;;;19.00;12.20;;;;;;;16.46;61.99;100476.70;108053;1254;70366;-69
2024/04/07 04:36:13;;;;;;;16.70;11.20;;;;;;;16.44;62.16;100481.61;107998;1254;60421;-68
2024/04/07 04:38:39;;;;;;;15.60;11.00;;;;;;;16.45;62.12;100485.05;108050;1254;61880;-69
2024/04/07 04:41:06;;;;;;;17.10;11.80;;;;;;;16.42;62.23;100480.65;107996;1254;60299;-69
2024/04/07 04:43:32;;;;;;;13.70;9.30;;;;;;;16.38;62.40;100484.08;107993;1257;60414;-68
2024/04/07 04:46:03;;;;;;;13.60;9.30;;;;;;;16.38;62.27;100490.24;107987;1257;60208;-69
2024/04/07 04:48:33;;;;;;;14.20;9.40;;;;;;;16.51;61.82;100493.55;108010;1254;72552;-70
2024/04/07 04:51:00;;;;;;;8.80;6.20;;;;;;;16.53;61.92;100493.15;108037;1254;60412;-69
2024/04/07 04:53:28;;;;;;;11.60;8.20;;;;;;;16.61;61.76;100496.23;108032;1254;60439;-69
2024/04/07 04:56:12;;;;;;;14.80;9.00;;;;;;;16.66;61.45;100496.51;107986;1253;73734;-70
2024/04/07 04:58:39;;;;;;;9.00;7.50;;;;;;;16.71;61.42;100500.63;108020;1254;69568;-69
2024/04/07 05:01:13;;;;;;;11.00;7.90;;;;;;;16.64;61.73;100504.23;107966;1254;71726;-68
2024/04/07 05:03:39;;;;;;;10.90;7.70;;;;;;;16.72;61.61;100508.94;108040;1254;61856;-67
2024/04/07 05:06:07;;;;;;;10.30;6.90;;;;;;;16.78;61.63;100517.09;108026;1254;60361;-69
2024/04/07 05:08:35;;;;;;;11.30;7.00;;;;;;;16.93;61.17;100521.94;107970;1254;74123;-68
2024/04/07 05:11:03;;;;;;;8.30;5.80;;;;;;;16.92;61.07;100525.69;108023;1254;70669;-69
2024/04/07 05:13:30;;;;;;;11.30;6.60;;;;;;;17.02;60.91;100531.52;108047;1254;71424;-68
2024/04/07 05:15:56;;;;;;;8.80;6.20;;;;;;;17.03;60.74;100538.24;108032;1254;61659;-70
2024/04/07 05:18:23;;;;;;;8.40;5.70;;;;;;;17.13;60.28;100541.73;108009;1254;59968;-70
2024/04/07 05:20:49;;;;;;;11.40;6.70;;;;;;;17.18;59.88;100542.70;108002;1254;60352;-69
2024/04/07 05:23:16;;;;;;;11.30;7.50;;;;;;;17.18;59.35;100538.75;107906;1254;70244;-69
2024/04/07 05:25:43;;;;;;;11.10;7.40;;;;;;;17.09;59.35;100549.42;108071;1254;60287;-69
2024/04/07 05:28:11;;;;;;;8.60;7.00;;;;;;;17.10;59.20;100554.67;108064;1255;60333;-70
2024/04/07 05:30:40;;;;;;;11.10;7.00;;;;;;;17.08;59.05;100556.77;108076;1254;60311;-68
2024/04/07 05:33:07;;;;;;;10.90;7.50;;;;;;;17.08;59.14;100562.58;107947;1256;73835;-69
2024/04/07 05:35:34;;;;;;;10.40;7.50;;;;;;;17.03;59.24;100567.53;108018;1254;71560;-69
2024/04/07 05:38:01;;;;;;;17.70;9.10;;;;;;;16.90;59.57;100568.91;107982;1254;72540;-69
2024/04/07 05:40:28;;;;;;;9.60;7.90;;;;;;;16.83;59.78;100575.15;108022;1254;61647;-69
2024/04/07 05:42:55;;;;;;;12.00;7.80;;;;;;;16.89;59.83;100572.17;107973;1257;60355;-69
2024/04/07 05:45:21;;;;;;;12.00;8.70;;;;;;;17.04;59.60;100576.50;107960;1254;72572;-69
2024/04/07 05:47:51;;;;;;;12.50;8.30;;;;;;;17.15;59.35;100579.23;108011;1257;68998;-69
2024/04/07 05:50:18;;;;;;;11.80;8.00;;;;;;;17.24;59.04;100576.38;107989;1254;72445;-69
2024/04/07 05:52:45;;;;;;;13.30;8.90;;;;;;;17.24;59.24;100569.31;108005;1254;61793;-69
2024/04/07 05:55:12;;;;;;;16.20;9.30;;;;;;;17.27;59.37;100568.08;108007;1254;60321;-69
2024/04/07 05:57:39;;;;;;;13.70;10.40;;;;;;;17.37;59.33;100568.55;108028;1257;72747;-69
2024/04/07 06:00:09;;;;;;;15.20;10.60;;;;;;;17.57;59.13;100565.60;108040;1254;69241;-69
2024/04/07 06:02:39;;;;;;;13.70;10.60;;;;;;;17.70;58.83;100568.77;108011;1254;73929;-69
2024/04/07 06:05:06;;;;;;;15.00;10.90;;;;;;;17.74;58.82;100574.67;107994;1254;60359;-69
2024/04/07 06:07:32;;;;;;;14.80;10.30;;;;;;;17.80;58.65;100575.95;107994;1254;60552;-69
2024/04/07 06:09:59;;;;;;;14.30;10.90;;;;;;;17.79;58.55;100582.23;108027;1254;73622;-70
2024/04/07 06:12:26;;;;;;;13.50;9.50;;;;;;;17.79;58.45;100586.84;108036;1254;70031;-68
2024/04/07 06:14:52;;;;;;;12.20;8.90;;;;;;;17.95;58.38;100592.11;108030;1253;60508;-70
2024/04/07 06:17:21;;;;;;;12.50;9.10;;;;;;;18.09;57.98;100596.44;108021;1254;62061;-67
2024/04/07 06:19:47;;;;;;;10.90;8.50;;;;;;;18.35;57.59;100595.16;107995;1254;60449;-67
2024/04/07 06:22:14;;;;;;;12.20;8.40;;;;;;;18.58;57.29;100598.39;107981;1254;60390;-69
2024/04/07 06:24:40;;;;;;;10.50;8.40;;;;;;;18.82;56.77;100598.50;108047;1254;60426;-68
2024/04/07 06:27:07;;;;;;;12.00;8.40;;;;;;;18.96;56.83;100607.38;108049;1254;60326;-69
2024/04/07 06:29:34;;;;;;;13.10;8.30;;;;;;;19.18;56.26;100604.91;107991;1257;60387;-69
2024/04/07 06:32:01;;;;;;;12.70;7.60;;;;;;;19.47;55.52;100604.78;108071;1254;60617;-69
2024/04/07 06:34:29;;;;;;;10.00;7.50;;;;;;;19.73;54.43;100613.01;108082;1254;73392;-68
2024/04/07 06:36:55;;;;;;;11.00;7.20;;;;;;;19.98;53.51;100610.27;108046;1254;69615;-68
2024/04/07 06:39:22;;;;;;;8.50;6.30;;;;;;;20.23;52.44;100613.19;107985;1254;72357;-68
2024/04/07 06:41:48;;;;;;;9.70;7.20;;;;;;;20.52;51.74;100613.67;107870;1256;60336;-67
2024/04/07 06:44:15;;;;;;;8.90;6.40;;;;;;;20.65;51.06;100614.85;107993;1254;59664;-69
2024/04/07 06:46:41;;;;;;;11.80;6.70;;;;;;;21.13;50.71;100617.46;107983;1254;60450;-68
2024/04/07 06:49:07;;;;;;;9.00;5.70;;;;;;;21.82;49.60;100614.48;108020;1254;60569;-70
2024/04/07 06:51:34;;;;;;;7.50;5.70;;;;;;;22.52;47.35;100614.98;107898;1254;61130;-70
2024/04/07 06:54:01;;;;;;;8.10;5.50;;;;;;;23.21;46.51;100618.73;108025;1254;60563;-71
2024/04/07 06:56:28;;;;;;;5.50;4.70;;;;;;;23.91;45.42;100617.17;108023;1254;60460;-69
2024/04/07 06:58:54;;;;;;;6.50;4.70;;;;;;;24.42;44.19;100618.75;108025;1254;73910;-69
2024/04/07 07:01:21;;;;;;;5.90;4.20;;;;;;;25.15;43.07;100624.34;108023;1254;70272;-71
2024/04/07 07:03:48;;;;;;;4.90;3.70;;;;;;;25.96;41.07;100621.94;107984;1254;72749;-71
2024/04/07 07:06:15;;;;;;;4.50;3.80;;;;;;;26.68;39.92;100627.52;107986;1254;61840;-70
2024/04/07 07:08:42;;;;;;;5.00;3.70;;;;;;;27.14;37.46;100625.68;108019;1254;60371;-71
2024/04/07 07:11:09;;;;;;;5.30;3.60;;;;;;;27.45;35.94;100634.10;107989;1254;74490;-70
2024/04/07 07:13:45;;;;;;;3.80;3.30;;;;;;;27.73;35.81;100633.65;107978;1254;69179;-71
2024/04/07 07:16:12;;;;;;;7.40;3.60;;;;;;;27.94;35.31;100631.45;108003;1254;71480;-70
2024/04/07 07:18:38;;;;;;;4.10;3.70;;;;;;;27.90;34.18;100633.03;107993;1254;60059;-70
2024/04/07 07:21:06;;;;;;;5.60;3.80;;;;;;;27.94;34.79;100633.78;107993;1254;61250;-70
2024/04/07 07:23:33;;;;;;;5.20;3.30;;;;;;;28.30;34.12;100633.05;107942;1254;74681;-70
2024/04/07 07:26:02;;;;;;;6.50;3.50;;;;;;;28.61;33.51;100632.81;107976;1254;70281;-71
2024/04/07 07:28:29;;;;;;;5.40;3.30;;;;;;;28.96;33.30;100632.66;108010;1254;72516;-70
2024/04/07 07:30:56;;;;;;;5.10;3.20;;;;;;;29.45;32.54;100627.23;107998;1254;61239;-69
2024/04/07 07:33:23;;;;;;;7.30;3.20;;;;;;;29.94;31.61;100622.93;108020;1254;60470;-71
2024/04/07 07:35:50;;;;;;;3.60;2.60;;;;;;;30.16;31.11;100626.10;108014;1254;74650;-71
2024/04/07 07:38:18;;;;;;;3.40;2.50;;;;;;;30.38;30.79;100626.23;107979;1254;70790;-70
2024/04/07 07:40:45;;;;;;;4.10;2.40;;;;;;;30.59;30.33;100627.99;108054;1255;72616;-70
2024/04/07 07:43:12;;;;;;;5.60;2.40;;;;;;;30.85;28.66;100630.14;108025;1254;61219;-71
2024/04/07 07:45:40;;;;;;;5.10;2.20;;;;;;;31.08;28.50;100633.30;108055;1254;61137;-71
2024/04/07 07:48:07;;;;;;;2.70;2.00;;;;;;;31.24;27.56;100629.77;108056;1254;75235;-69
2024/04/07 07:50:33;;;;;;;3.80;2.10;;;;;;;31.31;27.58;100630.25;108013;1254;70949;-70
2024/04/07 07:53:02;;;;;;;3.70;2.20;;;;;;;31.21;27.16;100629.25;108025;1254;72513;-70
2024/04/07 07:55:29;;;;;;;4.10;1.90;;;;;;;30.86;27.48;100629.05;107991;1254;60492;-69
2024/04/07 07:57:56;;;;;;;3.60;1.90;;;;;;;30.87;28.01;100636.25;108034;1254;61344;-71
2024/04/07 08:00:23;;;;;;;2.70;1.80;;;;;;;31.44;27.87;100639.58;108077;1254;74628;-71
2024/04/07 08:02:54;;;;;;;5.90;2.00;;;;;;;32.08;27.10;100639.10;108098;1254;70366;-69
2024/04/07 08:05:21;;;;;;;4.10;2.30;;;;;;;32.61;26.19;100632.47;108081;1254;72775;-71
2024/04/07 08:07:47;;;;;;;2.60;2.10;;;;;;;32.52;25.70;100634.13;108098;1254;60344;-70
2024/04/07 08:10:14;;;;;;;4.20;1.80;;;;;;;32.22;26.24;100639.09;108021;1254;61136;-70
2024/04/07 08:12:43;;;;;;;2.70;1.70;;;;;;;32.18;25.55;100640.40;107982;1254;74834;-70
2024/04/07 08:15:14;;;;;;;3.60;1.50;;;;;;;32.36;25.95;100639.04;108036;1254;70229;-70
2024/04/07 08:17:41;;;;;;;5.20;2.00;;;;;;;32.81;25.58;100637.89;108023;1254;72704;-71
2024/04/07 08:20:08;;;;;;;2.90;1.80;;;;;;;33.16;25.26;100636.98;107968;1254;61089;-71
2024/04/07 08:22:34;;;;;;;3.50;1.80;;;;;;;33.40;24.74;100632.48;107983;1254;60366;-72
2024/04/07 08:25:05;;;;;;;2.70;1.50;;;;;;;33.38;24.61;100634.73;108011;1254;66094;-72
2024/04/07 08:27:33;;;;;;;;;;;;;;;33.20;24.19;100638.48;107997;1254;70084;-71
2024/04/07 08:30:00;;;;;;;1.60;1.40;;;;;;;33.36;24.34;100646.30;107994;1255;73005;-71
2024/04/07 08:32:26;;;;;;;2.00;1.40;;;;;;;33.37;24.15;100649.70;107991;1254;61273;-71
2024/04/07 08:34:53;;;;;;;2.70;1.20;;;;;;;33.26;23.82;100652.15;108009;1254;61115;-71
2024/04/07 08:37:20;;;;;;;2.00;1.30;;;;;;;33.43;23.98;100651.29;108001;1254;74670;-71
2024/04/07 08:39:47;;;;;;;2.60;1.50;;;;;;;33.66;23.66;100649.11;108023;1254;61479;-70
2024/04/07 08:42:15;;;;;;;4.50;2.60;;;;;;;33.68;23.51;100650.48;108027;1254;72412;-71
2024/04/07 08:44:41;;;;;;;3.30;1.90;;;;;;;33.50;23.19;100652.07;107714;1254;61237;-71
2024/04/07 08:47:08;;;;;;;2.40;1.60;;;;;;;33.34;23.56;100647.13;108009;1254;61107;-71
2024/04/07 08:49:35;;;;;;;2.60;1.80;;;;;;;33.42;23.84;100645.23;107697;1254;65868;-71
2024/04/07 08:52:02;;;;;;;2.90;1.50;;;;;;;33.50;23.88;100641.61;107897;1254;61875;-70
2024/04/07 08:54:30;;;;;;;2.20;1.70;;;;;;;33.58;24.04;100637.90;107713;1254;73078;-71
2024/04/07 08:56:58;;;;;;;3.00;1.60;;;;;;;33.65;23.50;100636.46;108034;1254;61244;-71
2024/04/07 08:59:25;;;;;;;2.60;1.70;;;;;;;33.55;23.53;100639.41;108038;1254;61138;-70
2024/04/07 09:01:51;;;;;;;2.40;1.40;;;;;;;33.48;23.62;100644.83;107901;1254;64881;-72
2024/04/07 09:04:18;;;;;;;3.40;1.50;;;;;;;33.47;23.84;100648.64;107927;1254;70206;-71
2024/04/07 09:06:45;;;;;;;2.60;1.30;;;;;;;33.60;23.89;100649.88;108044;1257;73979;-73
2024/04/07 09:09:12;;;;;;;2.00;1.20;;;;;;;33.93;23.06;100647.84;107875;1260;61226;-71
2024/04/07 09:11:39;;;;;;;3.90;1.50;;;;;;;33.97;23.01;100652.45;108074;1254;61222;-71
2024/04/07 09:14:06;;;;;;;3.00;1.50;;;;;;;33.73;23.21;100656.95;108070;1254;65962;-70
2024/04/07 09:16:33;;;;;;;2.50;1.40;;;;;;;33.64;23.33;100657.03;107979;1254;61763;-71
2024/04/07 09:18:59;;;;;;;2.70;1.40;;;;;;;33.49;23.03;100663.41;107992;1254;62857;-71
2024/04/07 09:21:27;;;;;;;2.70;1.40;;;;;;;33.22;23.75;100666.80;107983;1254;61139;-71
2024/04/07 09:23:54;;;;;;;3.40;1.30;;;;;;;33.29;24.00;100665.77;108030;1254;61216;-71
2024/04/07 09:26:22;;;;;;;3.20;1.60;;;;;;;33.40;23.38;100664.52;108044;1254;74589;-72
2024/04/07 09:28:49;;;;;;;2.60;1.40;;;;;;;33.66;23.32;100663.86;108098;1254;70738;-70
2024/04/07 09:31:16;;;;;;;1.30;0.90;;;;;;;33.56;22.88;100665.88;108049;1254;64054;-70
2024/04/07 09:33:45;;;;;;;2.20;1.40;;;;;;;33.13;23.42;100664.45;108056;1255;61150;-71
2024/04/07 09:36:12;;;;;;;3.80;1.80;;;;;;;32.61;24.18;100671.41;108128;1253;61341;-71
2024/04/07 09:38:39;;;;;;;3.50;1.80;;;;;;;32.10;25.03;100677.39;108116;1253;66106;-71
2024/04/07 09:41:05;;;;;;;5.60;2.10;;;;;;;31.50;25.43;100678.98;108088;1253;68638;-71
2024/04/07 09:43:32;;;;;;;2.90;1.70;;;;;;;31.20;26.05;100682.14;107975;1258;72553;-70
2024/04/07 09:45:59;;;;;;;2.60;2.00;;;;;;;31.01;26.21;100679.79;108033;1253;61257;-71
2024/04/07 09:48:26;;;;;;;3.30;1.80;;;;;;;30.71;26.36;100683.67;107939;1253;61092;-69
2024/04/07 09:51:02;;;;;;;3.00;1.70;;;;;;;30.69;26.25;100681.75;108038;1253;74584;-71
2024/04/07 09:53:56;;;;;;;4.70;1.70;;;;;;;30.70;26.49;100684.55;108072;1253;70271;-71
2024/04/07 09:56:28;;;;;;;2.70;1.60;;;;;;;30.89;26.43;100689.16;108066;1257;72939;-71
2024/04/07 09:58:54;;;;;;;1.50;1.40;;;;;;;31.27;25.76;100691.48;108090;1253;61239;-70
2024/04/07 10:01:22;;;;;;;2.60;1.60;;;;;;;31.59;25.27;100692.29;108118;1253;61097;-70
2024/04/07 10:03:49;;;;;;;4.00;1.60;;;;;;;31.47;25.25;100691.13;107983;1253;74669;-70
2024/04/07 10:06:16;;;;;;;7.80;1.60;;;;;;;31.08;25.47;100695.09;108020;1253;69237;-70
2024/04/07 10:08:43;;;;;;;6.20;1.60;;;;;;;30.64;25.81;100698.95;107944;1253;73104;-71
2024/04/07 10:11:16;;;;;;;6.10;1.90;;;;;;;30.33;26.11;100701.83;108077;1253;61135;-72
2024/04/07 10:13:43;;;;;;;4.20;1.80;;;;;;;29.91;26.34;100704.15;108040;1253;60369;-70
2024/04/07 10:16:11;;;;;;;4.80;1.70;;;;;;;29.71;26.65;100700.10;108043;1257;74587;-71
2024/04/07 10:18:38;;;;;;;3.60;1.40;;;;;;;29.75;26.95;100701.55;108028;1253;69612;-72
2024/04/07 10:21:08;;;;;;;4.50;1.40;;;;;;;30.07;26.31;100695.91;108013;1253;73502;-71
2024/04/07 10:23:35;;;;;;;2.10;1.20;;;;;;;30.25;26.12;100696.43;108058;1253;61057;-70
2024/04/07 10:26:03;;;;;;;2.90;1.30;;;;;;;30.22;25.55;100694.81;108067;1256;61135;-71
2024/04/07 10:28:53;;;;;;;2.90;1.20;;;;;;;30.49;25.62;100699.25;108116;1253;74482;-71
2024/04/07 10:31:26;;;;;;;3.00;1.30;;;;;;;30.91;24.71;100689.95;108156;1253;70408;-71
2024/04/07 10:33:53;;;;;;;2.60;1.40;;;;;;;31.33;24.59;100695.14;108127;1253;72730;-71
2024/04/07 10:36:20;;;;;;;2.70;1.30;;;;;;;31.70;23.94;100696.84;107978;1259;61353;-70
2024/04/07 10:38:57;;;;;;;5.60;1.40;;;;;;;31.98;23.48;100700.75;108125;1253;61229;-71
2024/04/07 10:41:25;;;;;;;6.00;3.10;;;;;;;31.98;23.33;100699.41;108127;1253;74592;-70
2024/04/07 10:43:52;;;;;;;3.00;1.60;;;;;;;32.20;23.40;100703.23;108151;1253;69208;-71
2024/04/07 10:46:20;;;;;;;3.10;1.30;;;;;;;32.55;23.05;100708.33;108087;1253;71504;-72
2024/04/07 10:48:47;;;;;;;4.30;1.40;;;;;;;32.74;22.09;100703.67;108103;1253;61154;-72
2024/04/07 10:51:14;;;;;;;5.10;1.50;;;;;;;32.87;22.21;100701.86;108126;1253;60416;-69
2024/04/07 10:53:40;;;;;;;2.20;1.00;;;;;;;33.02;22.02;100699.66;108069;1253;74910;-70
2024/04/07 10:56:08;;;;;;;3.30;1.40;;;;;;;33.18;21.82;100694.59;108084;1257;70289;-70
2024/04/07 10:58:37;;;;;;;3.00;1.30;;;;;;;33.29;21.97;100695.77;108098;1253;71235;-71
2024/04/07 11:01:04;;;;;;;2.60;1.10;;;;;;;33.43;21.93;100695.89;108045;1253;61150;-69
2024/04/07 11:03:36;;;;;;;4.60;1.40;;;;;;;33.68;21.54;100692.02;108056;1253;59980;-72
2024/04/07 11:06:03;;;;;;;3.90;1.60;;;;;;;33.68;21.44;100699.46;108073;1257;74665;-71
2024/04/07 11:08:30;;;;;;;8.10;3.90;;;;;;;33.37;21.91;100706.82;108145;1253;61634;-71
2024/04/07 11:10:57;;;;;;;3.20;1.50;;;;;;;33.02;21.93;100710.77;107919;1253;62901;-70
2024/04/07 11:13:25;;;;;;;3.80;1.80;;;;;;;32.58;22.18;100715.25;108071;1253;61122;-70
2024/04/07 11:15:52;;;;;;;3.10;1.30;;;;;;;32.09;22.67;100716.84;108106;1253;59021;-70